Date,TemperatureHighF,TemperatureAvgF,TemperatureLowF,DewpointHighF,DewpointAvgF,DewpointLowF,HumidityHigh,HumidityAvg,HumidityLow,PressureMaxIn,PressureMinIn,WindSpeedMaxMPH,WindSpeedAvgMPH,GustSpeedMaxMPH,PrecipitationSumIn
2013-5-1,70.4,53.2,33.3,41.0,35.0,30.0,89,55,31,25.00,20.57,8,0,0,0.00
2013-5-2,80.1,55.1,37.3,49.0,40.1,33.0,89,61,28,25.00,20.69,11,1,0,0.00
2013-5-3,62.1,50.0,39.5,46.0,40.2,35.0,88,71,53,25.00,21.77,10,1,0,0.00
2013-5-4,63.4,48.6,35.3,47.0,37.0,24.0,93,69,25,25.11,20.57,7,1,0,0.00
2013-5-5,61.7,46.7,31.9,43.0,37.1,30.0,93,72,47,25.11,24.77,5,0,0,0.00
2013-5-6,73.1,50.7,32.1,51.0,41.8,30.0,93,75,38,28.33,22.27,4,0,0,0.00
2013-5-7,79.4,61.8,40.3,59.0,50.9,38.0,94,71,44,26.86,22.27,5,0,0,0.00
2013-5-8,74.0,61.9,50.0,63.0,56.8,48.0,94,84,64,25.11,0.00,5,0,0,0.15
2013-5-9,66.3,59.6,56.5,62.0,57.4,55.0,95,92,80,25.00,0.00,1,0,0,0.44
2013-5-10,80.4,65.1,52.9,62.0,56.7,52.0,96,77,45,25.00,0.00,4,0,0,0.01
2013-5-11,70.5,63.2,58.3,63.0,58.6,54.0,94,85,74,25.00,25.00,6,0,0,0.09
2013-5-12,71.0,60.2,46.8,60.0,51.7,33.0,94,76,45,25.00,25.00,4,0,0,0.13
2013-5-13,58.3,47.4,34.6,38.0,32.6,29.0,89,59,38,25.00,23.75,9,1,0,0.00
2013-5-14,58.4,47.2,33.4,37.0,33.1,30.0,89,61,37,25.11,24.80,5,0,0,0.00
2013-5-15,66.6,49.5,31.0,51.0,39.6,29.0,92,72,36,25.11,20.57,5,0,0,0.02
2013-5-16,81.1,65.3,46.3,51.0,44.9,37.0,93,54,27,25.00,20.57,12,1,0,0.00
2013-5-17,70.2,58.3,45.4,46.0,42.2,39.0,83,57,37,25.00,25.00,7,1,0,0.00
2013-5-18,74.1,57.5,38.8,51.0,43.7,36.0,93,64,31,25.00,25.00,6,0,0,0.00
2013-5-19,72.5,55.9,44.7,55.0,49.6,42.0,94,81,49,25.00,21.77,2,0,0,0.09
2013-5-20,81.7,66.8,55.2,67.0,60.9,53.0,95,83,58,25.00,25.00,5,0,0,0.03
2013-5-21,82.7,61.9,51.0,69.0,56.8,48.0,95,84,62,25.00,25.00,11,1,0,0.00
2013-5-22,67.7,56.3,49.7,63.0,53.4,48.0,95,90,78,25.00,25.00,5,0,0,0.31
2013-5-23,74.1,63.5,53.7,70.0,60.6,52.0,96,90,82,25.00,25.00,4,0,0,0.11
2013-5-24,71.0,62.5,48.2,67.0,59.9,46.0,96,91,80,25.00,25.00,11,0,0,0.22
2013-5-25,50.5,46.4,40.3,49.0,44.7,38.0,94,93,92,25.00,21.77,9,1,0,0.27
2013-5-26,57.6,47.3,39.1,45.0,40.0,37.0,93,77,56,25.00,24.80,6,1,0,0.03
2013-5-27,71.8,55.1,36.0,47.0,40.7,34.0,94,64,32,25.00,0.00,9,0,0,0.00
2013-5-28,75.0,58.1,39.4,52.0,45.9,37.0,94,68,34,25.00,25.00,2,0,0,0.00
2013-5-29,69.4,61.9,54.5,65.0,59.3,50.0,95,91,83,25.00,25.00,0,0,0,0.98
2013-5-30,87.9,73.2,59.6,72.0,65.7,58.0,96,79,53,25.00,25.00,4,0,0,0.00
2013-5-31,93.6,78.1,59.1,73.0,66.1,57.0,95,70,41,25.04,24.98,6,0,0,0.00